Time;durP1;ratioP1;P1;durP2;ratioP2;P2;SDS_P1;SDS_P2;PMS_P1;PMS_P2;Temp;Humidity;BMP_temperature;BMP_pressure;BME280_temperature;BME280_humidity;BME280_pressure;Samples;Min_cycle;Max_cycle;Signal;HPM_P1;HPM_P2
2021/06/03 00:00:29;;;;;;;6.05;3.90;;;16.50;96.20;;;;;;5027063;28;20192;-73
2021/06/03 00:02:55;;;;;;;3.88;3.58;;;16.50;96.60;;;;;;5027931;28;20277;-72
2021/06/03 00:05:29;;;;;;;4.32;3.90;;;16.50;97.30;;;;;;5029133;28;20590;-72
2021/06/03 00:07:56;;;;;;;5.10;3.60;;;16.40;98.30;;;;;;5029278;28;20536;-72
2021/06/03 00:10:26;;;;;;;4.80;4.13;;;16.40;97.80;;;;;;5027591;28;20230;-72
2021/06/03 00:12:53;;;;;;;5.35;3.67;;;16.50;98.60;;;;;;5029308;28;20177;-72
2021/06/03 00:15:19;;;;;;;4.45;3.42;;;16.50;98.50;;;;;;5029564;28;20219;-72
2021/06/03 00:17:44;;;;;;;4.55;3.83;;;16.60;98.10;;;;;;5026015;28;20223;-73
2021/06/03 00:20:14;;;;;;;3.67;3.35;;;16.70;98.00;;;;;;5024760;28;20274;-72
2021/06/03 00:22:40;;;;;;;5.30;3.70;;;;;;;;;;5026639;28;20595;-72
2021/06/03 00:25:07;;;;;;;5.45;3.65;;;;;;;;;;5027392;28;20200;-72
2021/06/03 00:27:33;;;;;;;7.03;3.88;;;;;;;;;;5023778;28;20386;-73
2021/06/03 00:29:59;;;;;;;4.78;4.28;;;;;;;;;;5027161;28;20208;-72
2021/06/03 00:32:25;;;;;;;4.32;3.75;;;;;;;;;;5025814;28;20188;-72
2021/06/03 00:34:51;;;;;;;5.22;3.85;;;;;;;;;;5024748;28;20192;-73
2021/06/03 00:37:17;;;;;;;4.18;3.78;;;;;;;;;;5025789;28;20694;-72
2021/06/03 00:39:43;;;;;;;4.07;3.70;;;;;;;;;;5030147;28;20184;-73
2021/06/03 00:42:09;;;;;;;4.22;3.92;;;;;;;;;;5023645;28;20297;-72
2021/06/03 00:44:35;;;;;;;4.90;3.95;;;;;;;;;;5026665;28;20192;-72
2021/06/03 00:47:01;;;;;;;4.30;3.83;;;;;;;;;;5024888;28;20406;-73
2021/06/03 00:49:27;;;;;;;4.35;3.95;;;;;;;;;;5025589;28;20271;-72
2021/06/03 00:51:53;;;;;;;5.75;4.13;;;;;;;;;;5026819;28;20643;-73
2021/06/03 00:54:19;;;;;;;4.35;3.95;;;;;;;;;;5028229;28;20196;-72
2021/06/03 00:56:45;;;;;;;4.18;3.78;;;;;;;;;;5020154;28;20204;-72
2021/06/03 00:59:11;;;;;;;5.43;4.20;;;;;;;;;;5019983;28;20865;-72
2021/06/03 01:01:37;;;;;;;5.75;3.70;;;;;;;;;;5024047;28;20189;-72
2021/06/03 01:04:04;;;;;;;4.75;4.35;;;;;;;;;;5025090;28;20184;-72
2021/06/03 01:06:30;;;;;;;5.82;4.47;;;;;;;;;;5026661;28;20220;-72
2021/06/03 01:09:12;;;;;;;5.95;4.05;;;;;;;;;;5027224;28;20188;-72
2021/06/03 01:12:11;;;;;;;5.15;4.68;;;;;;;;;;5028017;28;20172;-72
2021/06/03 01:14:38;;;;;;;4.70;4.38;;;;;;;;;;4985662;28;20196;-72
2021/06/03 01:17:05;;;;;;;6.25;4.82;;;;;;;;;;5024679;28;20215;-73
2021/06/03 01:19:33;;;;;;;4.88;4.30;;;;;;;;;;5011084;28;20207;-72
2021/06/03 01:22:05;;;;;;;4.20;3.80;;;;;;;;;;5025298;28;20187;-73
2021/06/03 01:24:36;;;;;;;5.38;4.50;;;;;;;;;;5025670;28;20184;-72
2021/06/03 01:27:04;;;;;;;4.57;4.13;;;;;;;;;;5024777;28;20215;-72
2021/06/03 01:29:38;;;;;;;6.68;4.75;;;16.80;98.80;;;;;;5026735;28;20192;-72
2021/06/03 01:32:04;;;;;;;5.00;4.60;;;15.60;99.90;;;;;;5028779;28;20204;-72
2021/06/03 01:34:31;;;;;;;4.57;4.18;;;15.50;99.90;;;;;;5024540;28;20181;-72
2021/06/03 01:36:57;;;;;;;4.95;4.50;;;15.50;99.90;;;;;;5028152;28;20350;-72
2021/06/03 01:39:23;;;;;;;5.28;4.57;;;15.50;99.90;;;;;;5025316;28;20656;-72
2021/06/03 01:41:49;;;;;;;5.95;4.50;;;;;;;;;;5023672;28;20772;-73
2021/06/03 01:44:15;;;;;;;6.45;4.53;;;15.50;99.90;;;;;;5025014;28;22226;-73
2021/06/03 01:46:41;;;;;;;6.50;4.78;;;;;;;;;;5028384;28;20231;-72
2021/06/03 01:49:07;;;;;;;5.25;4.85;;;;;;;;;;5024921;28;20292;-72
2021/06/03 01:51:33;;;;;;;5.13;4.72;;;15.50;99.90;;;;;;5023617;28;20187;-72
2021/06/03 01:53:59;;;;;;;6.72;5.28;;;;;;;;;;5027356;28;20656;-72
2021/06/03 01:56:25;;;;;;;5.20;4.65;;;;;;;;;;5024915;28;20661;-72
2021/06/03 01:58:51;;;;;;;6.13;5.50;;;;;;;;;;5024356;28;20650;-72
2021/06/03 02:01:19;;;;;;;5.60;5.13;;;;;;;;;;5024760;28;20195;-72
2021/06/03 02:03:45;;;;;;;7.55;5.45;;;15.30;99.90;;;;;;5009780;28;20249;-72
2021/06/03 02:06:11;;;;;;;6.32;4.80;;;15.30;99.90;;;;;;5020127;28;20204;-72
2021/06/03 02:08:37;;;;;;;6.25;5.50;;;15.30;99.90;;;;;;5025935;28;20886;-72
2021/06/03 02:11:04;;;;;;;5.57;4.90;;;15.30;99.90;;;;;;5026341;28;20188;-72
2021/06/03 02:13:38;;;;;;;5.57;5.07;;;15.20;99.90;;;;;;5021738;28;20188;-72
2021/06/03 02:16:17;;;;;;;5.45;5.00;;;15.20;99.90;;;;;;5010261;28;20623;-72
2021/06/03 02:19:02;;;;;;;5.70;5.10;;;15.30;99.90;;;;;;5027556;28;20279;-72
2021/06/03 02:21:30;;;;;;;5.95;4.90;;;15.30;99.90;;;;;;5025210;28;20195;-72
2021/06/03 02:23:58;;;;;;;5.15;4.75;;;15.30;99.90;;;;;;5022504;28;20623;-72
2021/06/03 02:26:25;;;;;;;5.20;4.80;;;;;;;;;;5020546;28;20290;-72
2021/06/03 02:28:51;;;;;;;5.60;5.10;;;15.50;99.90;;;;;;5026323;28;20177;-72
2021/06/03 02:31:18;;;;;;;5.38;4.90;;;15.50;99.90;;;;;;5019405;28;20192;-73
2021/06/03 02:33:44;;;;;;;5.43;4.93;;;15.60;99.90;;;;;;5024850;28;20294;-73
2021/06/03 02:36:10;;;;;;;5.80;5.30;;;15.60;99.90;;;;;;5022730;28;20205;-72
2021/06/03 02:38:36;;;;;;;6.07;5.03;;;15.70;99.90;;;;;;5026257;28;20192;-73
2021/06/03 02:41:06;;;;;;;5.20;4.80;;;15.70;99.90;;;;;;5022929;28;20737;-72
2021/06/03 02:43:33;;;;;;;6.30;5.00;;;15.80;99.90;;;;;;5022521;28;20223;-72
2021/06/03 02:46:00;;;;;;;5.53;5.03;;;15.80;99.90;;;;;;5006654;28;20663;-72
2021/06/03 02:48:26;;;;;;;5.85;4.68;;;15.90;99.90;;;;;;5008162;28;20334;-72
2021/06/03 02:50:52;;;;;;;6.68;4.45;;;16.00;99.90;;;;;;5024874;28;20192;-72
2021/06/03 02:53:18;;;;;;;4.80;4.43;;;16.10;99.90;;;;;;5025467;28;20176;-72
2021/06/03 02:55:43;;;;;;;5.10;4.70;;;16.20;99.90;;;;;;5025571;28;20572;-73
2021/06/03 02:58:10;;;;;;;4.88;4.45;;;;;;;;;;5020462;28;20192;-72
2021/06/03 03:00:37;;;;;;;5.03;4.63;;;;;;;;;;5025432;28;20681;-72
2021/06/03 03:03:05;;;;;;;5.40;4.80;;;;;;;;;;5025848;28;20487;-72
2021/06/03 03:05:31;;;;;;;4.53;4.13;;;;;;;;;;5009302;28;20216;-73
2021/06/03 03:07:57;;;;;;;4.72;3.88;;;;;;;;;;5023324;28;20215;-73
2021/06/03 03:10:28;;;;;;;4.90;4.50;;;;;;;;;;5027382;28;20204;-73
2021/06/03 03:12:54;;;;;;;4.85;3.80;;;;;;;;;;5026688;28;20215;-71
2021/06/03 03:15:20;;;;;;;4.43;4.03;;;;;;;;;;5029220;28;20643;-72
2021/06/03 03:17:46;;;;;;;6.18;3.95;;;;;;;;;;5028632;28;20200;-73
2021/06/03 03:20:13;;;;;;;4.25;3.80;;;;;;;;;;5025436;28;20189;-72
2021/06/03 03:22:40;;;;;;;4.55;3.97;;;;;;;;;;5027605;28;20181;-72
2021/06/03 03:25:08;;;;;;;5.10;4.07;;;;;;;;;;5026622;28;20200;-71
2021/06/03 03:27:34;;;;;;;4.13;3.72;;;;;;;;;;5027918;28;20189;-72
2021/06/03 03:30:00;;;;;;;4.20;3.80;;;;;;;;;;5028027;28;20192;-71
2021/06/03 03:32:26;;;;;;;4.22;3.80;;;;;;;;;;5003581;28;20205;-72
2021/06/03 03:34:52;;;;;;;4.88;4.20;;;;;;;;;;5030090;28;20188;-72
2021/06/03 03:37:18;;;;;;;5.15;4.45;;;;;;;;;;5027789;28;20196;-72
2021/06/03 03:39:44;;;;;;;4.72;4.25;;;;;;;;;;5026911;28;20191;-72
2021/06/03 03:42:10;;;;;;;5.10;4.70;;;;;;;;;;5022089;28;20184;-72
2021/06/03 03:44:36;;;;;;;4.80;4.40;;;;;;;;;;5028025;28;20678;-72
2021/06/03 03:47:02;;;;;;;6.38;5.78;;;;;;;;;;5025140;28;20247;-71
2021/06/03 03:49:28;;;;;;;6.97;6.38;;;;;;;;;;5027046;28;20203;-72
2021/06/03 03:51:54;;;;;;;10.18;6.43;;;;;;;;;;5028827;28;20185;-72
2021/06/03 03:54:20;;;;;;;6.97;6.18;;;;;;;;;;5027319;28;20207;-72
2021/06/03 03:56:46;;;;;;;7.85;5.72;;;;;;;;;;5028813;28;20290;-72
2021/06/03 03:59:13;;;;;;;7.78;5.70;;;;;;;;;;5025833;28;20233;-72
2021/06/03 04:01:39;;;;;;;7.13;6.05;;;;;;;;;;5025605;28;20253;-73
2021/06/03 04:07:08;;;;;;;7.38;5.93;;;;;;;;;;5025688;28;20372;-72
2021/06/03 04:09:34;;;;;;;6.93;6.32;;;;;;;;;;5025767;28;20267;-72
2021/06/03 04:12:00;;;;;;;6.10;5.53;;;;;;;;;;5021993;28;20188;-71
2021/06/03 04:14:27;;;;;;;7.60;5.93;;;;;;;;;;5011320;28;20219;-72
2021/06/03 04:16:53;;;;;;;7.45;6.20;;;;;;;;;;5028839;28;20212;-72
2021/06/03 04:19:19;;;;;;;6.20;5.50;;;;;;;;;;5027630;28;20253;-72
2021/06/03 04:21:45;;;;;;;7.60;6.20;;;;;;;;;;5022655;28;20268;-71
2021/06/03 04:24:11;;;;;;;6.68;5.97;;;;;;;;;;5026497;28;20264;-72
2021/06/03 04:26:37;;;;;;;9.18;5.82;;;;;;;;;;5027012;28;20228;-72
2021/06/03 04:29:04;;;;;;;9.02;5.93;;;;;;;;;;5022915;28;20196;-72
2021/06/03 04:31:30;;;;;;;9.98;6.00;;;;;;;;;;5025426;28;20917;-72
2021/06/03 04:33:56;;;;;;;7.63;6.10;;;;;;;;;;5027004;28;20192;-72
2021/06/03 04:36:22;;;;;;;6.85;5.60;;;;;;;;;;5025342;28;20205;-72
2021/06/03 04:38:48;;;;;;;6.20;5.60;;;;;;;;;;5025788;28;20204;-72
2021/06/03 04:41:14;;;;;;;10.07;5.95;;;;;;;;;;5025346;28;20628;-72
2021/06/03 04:43:42;;;;;;;8.23;5.78;;;;;;;;;;5024394;28;20192;-72
2021/06/03 04:46:08;;;;;;;12.95;6.75;;;;;;;;;;5026925;28;20212;-72
2021/06/03 04:48:34;;;;;;;7.20;5.93;;;;;;;;;;5026836;28;20183;-71
2021/06/03 04:51:00;;;;;;;11.02;6.25;;;;;;;;;;5022597;28;20725;-72
2021/06/03 04:53:26;;;;;;;8.80;6.40;;;;;;;;;;5025511;28;20211;-72
2021/06/03 04:55:52;;;;;;;7.10;6.40;;;;;;;;;;5027217;28;20213;-72
2021/06/03 04:58:18;;;;;;;6.68;5.97;;;;;;;;;;5025019;28;20238;-72
2021/06/03 05:00:44;;;;;;;6.72;6.13;;;;;;;;;;5025605;28;20608;-72
2021/06/03 05:03:12;;;;;;;6.60;6.00;;;;;;;;;;5026182;28;20188;-72
2021/06/03 05:05:39;;;;;;;7.75;6.85;;;;;;;;;;5025840;28;20285;-72
2021/06/03 05:08:06;;;;;;;9.88;6.90;;;;;;;;;;5020445;28;20717;-72
2021/06/03 05:10:32;;;;;;;7.47;6.40;;;;;;;;;;5022808;28;20215;-73
2021/06/03 05:12:58;;;;;;;7.40;6.70;;;;;;;;;;5029279;28;20188;-73
2021/06/03 05:15:24;;;;;;;7.43;6.72;;;;;;;;;;5025627;28;20196;-73
2021/06/03 05:17:51;;;;;;;6.95;6.03;;;;;;;;;;5025121;28;20215;-73
2021/06/03 05:20:18;;;;;;;7.07;5.75;;;;;;;;;;5007772;28;20185;-72
2021/06/03 05:22:45;;;;;;;10.13;6.50;;;;;;;;;;5024785;28;20180;-72
2021/06/03 05:25:13;;;;;;;8.18;6.78;;;;;;;;;;5023626;28;20212;-73
2021/06/03 05:27:40;;;;;;;9.13;6.45;;;;;;;;;;5019049;28;20201;-73
2021/06/03 05:30:07;;;;;;;7.15;6.03;;;;;;;;;;5026082;28;20723;-73
2021/06/03 05:32:33;;;;;;;8.55;6.35;;;;;;;;;;5022826;28;20254;-73
2021/06/03 05:34:59;;;;;;;7.00;6.03;;;;;;;;;;5026383;28;20176;-72
2021/06/03 05:37:25;;;;;;;7.45;6.80;;;;;;;;;;5028807;28;20258;-72
2021/06/03 05:39:51;;;;;;;8.68;6.07;;;;;;;;;;5023276;28;20271;-72
2021/06/03 05:42:18;;;;;;;6.60;5.75;;;;;;;;;;5025188;28;20682;-72
2021/06/03 05:44:44;;;;;;;9.02;6.25;;;;;;;;;;5025014;28;20187;-72
2021/06/03 05:47:10;;;;;;;7.13;5.65;;;;;;;;;;5026299;28;20204;-73
2021/06/03 05:49:36;;;;;;;8.23;5.32;;;;;;;;;;5025066;28;20231;-73
2021/06/03 05:52:03;;;;;;;4.13;3.78;;;;;;;;;;5024510;28;20181;-73
2021/06/03 05:54:29;;;;;;;3.22;2.90;;;;;;;;;;5012736;28;20211;-73
2021/06/03 05:56:55;;;;;;;4.50;3.20;;;;;;;;;;5023174;28;20290;-72
2021/06/03 05:59:22;;;;;;;3.45;3.15;;;;;;;;;;5027805;28;20287;-73
2021/06/03 06:01:48;;;;;;;3.58;3.25;;;;;;;;;;5024176;28;20180;-73
2021/06/03 06:06:49;;;;;;;5.15;3.50;;;;;;;;;;5024961;28;20298;-73
2021/06/03 06:09:15;;;;;;;4.90;4.40;;;;;;;;;;5024987;28;20606;-73
2021/06/03 06:11:44;;;;;;;5.85;4.88;;;;;;;;;;5024783;28;20671;-73
2021/06/03 06:14:10;;;;;;;4.00;3.70;;;;;;;;;;5024100;28;20717;-73
2021/06/03 06:16:37;;;;;;;4.10;3.70;;;;;;;;;;5024058;28;20287;-72
2021/06/03 06:19:04;;;;;;;5.22;3.85;;;;;;;;;;5026796;28;20291;-72
2021/06/03 06:21:30;;;;;;;3.92;3.53;;;;;;;;;;5021187;28;20267;-72
2021/06/03 06:23:56;;;;;;;5.65;3.92;;;;;;;;;;5024881;28;20188;-73
2021/06/03 06:26:23;;;;;;;3.50;3.20;;;;;;;;;;5027538;28;20592;-74
2021/06/03 06:28:49;;;;;;;4.18;3.80;;;;;;;;;;5022293;28;20207;-72
2021/06/03 06:31:16;;;;;;;3.65;3.35;;;;;;;;;;5021750;28;20192;-72
2021/06/03 06:33:42;;;;;;;5.05;3.03;;;;;;;;;;5022899;28;20185;-72
2021/06/03 06:36:09;;;;;;;3.95;3.60;;;;;;;;;;5020346;28;20212;-72
2021/06/03 06:38:37;;;;;;;5.55;3.50;;;;;;;;;;5017880;28;20640;-72
2021/06/03 06:41:03;;;;;;;4.93;3.75;;;;;;;;;;5003002;28;20204;-72
2021/06/03 06:43:29;;;;;;;5.13;3.50;;;;;;;;;;5021297;28;20188;-72
2021/06/03 06:45:55;;;;;;;5.30;4.03;;;;;;;;;;5023237;28;20706;-71
2021/06/03 06:48:21;;;;;;;4.50;3.30;;;;;;;;;;5025524;28;20176;-71
2021/06/03 06:50:49;;;;;;;5.63;3.40;;;;;;;;;;5030069;28;20168;-72
2021/06/03 06:53:15;;;;;;;3.85;3.50;;;;;;;;;;5028418;28;20192;-71
2021/06/03 06:55:42;;;;;;;3.22;2.92;;;;;;;;;;5029420;28;20604;-72
2021/06/03 06:58:08;;;;;;;7.03;3.28;;;;;;;;;;5030356;28;20196;-71
2021/06/03 07:00:35;;;;;;;3.65;3.35;;;;;;;;;;5026291;28;20192;-71
2021/06/03 07:03:01;;;;;;;5.68;3.38;;;;;;;;;;5029132;28;20192;-70
2021/06/03 07:05:28;;;;;;;5.03;3.45;;;;;;;;;;5029704;28;20208;-72
2021/06/03 07:07:54;;;;;;;3.63;3.22;;;;;;;;;;5028524;28;20659;-71
2021/06/03 07:10:20;;;;;;;3.58;3.20;;;;;;;;;;5024867;28;20576;-71
2021/06/03 07:12:47;;;;;;;4.30;2.60;;;;;;;;;;5025916;28;20192;-70
2021/06/03 07:15:14;;;;;;;3.60;2.95;;;;;;;;;;5029501;28;20207;-72
2021/06/03 07:17:41;;;;;;;3.15;2.83;;;;;;;;;;5027577;28;20653;-73
2021/06/03 07:20:10;;;;;;;4.75;3.00;;;;;;;;;;5025065;28;20191;-72
2021/06/03 07:22:39;;;;;;;3.00;2.70;;;;;;;;;;5029153;28;20598;-74
2021/06/03 07:25:06;;;;;;;3.25;2.85;;;;;;;;;;5026491;28;20212;-73
2021/06/03 07:27:33;;;;;;;3.38;3.08;;;;;;;;;;5025623;28;20762;-72
2021/06/03 07:30:00;;;;;;;3.35;2.67;;;;;;;;;;5027109;28;20188;-72
2021/06/03 07:32:29;;;;;;;3.58;2.95;;;;;;;;;;5028901;28;20267;-72
2021/06/03 07:34:55;;;;;;;2.97;2.65;;;;;;;;;;5025710;28;20192;-72
2021/06/03 07:37:21;;;;;;;3.33;2.90;;;;;;;;;;5026673;28;20320;-72
2021/06/03 07:39:47;;;;;;;5.05;3.50;;;;;;;;;;5026792;28;20625;-72
2021/06/03 07:42:13;;;;;;;5.18;3.35;;;;;;;;;;5025661;28;20184;-72
2021/06/03 07:44:40;;;;;;;6.28;3.10;;;;;;;;;;5027657;28;20554;-71
2021/06/03 07:47:06;;;;;;;5.70;3.38;;;;;;;;;;5030765;28;20218;-72
2021/06/03 07:49:32;;;;;;;4.05;2.80;;;;;;;;;;5024734;28;20176;-72
2021/06/03 07:52:02;;;;;;;3.60;2.92;;;;;;;;;;5027203;28;20702;-70
2021/06/03 07:54:28;;;;;;;3.83;2.78;;;;;;;;;;5026583;28;20200;-72
2021/06/03 07:56:54;;;;;;;3.60;2.70;;;;;;;;;;5028393;28;20724;-72
2021/06/03 07:59:20;;;;;;;4.30;2.67;;;;;;;;;;5025507;28;20206;-72
2021/06/03 08:01:46;;;;;;;4.57;3.25;;;;;;;;;;5028998;28;20658;-72
2021/06/03 08:04:12;;;;;;;3.10;2.60;;;;;;;;;;5026196;28;20192;-72
2021/06/03 08:06:38;;;;;;;4.10;2.72;;;;;;;;;;5026655;28;20208;-72
2021/06/03 08:09:04;;;;;;;5.38;3.05;;;;;;;;;;5027335;28;20572;-72
2021/06/03 08:11:30;;;;;;;5.13;3.50;;;;;;;;;;5028543;28;20184;-72
2021/06/03 08:13:56;;;;;;;6.97;3.30;;;;;;;;;;5026426;28;20797;-72
2021/06/03 08:16:22;;;;;;;3.78;2.83;;;;;;;;;;5011083;28;20298;-72
2021/06/03 08:18:48;;;;;;;5.47;3.40;;;;;;;;;;5029898;28;20181;-72
2021/06/03 08:21:14;;;;;;;3.33;3.03;;;;;;;;;;5026042;28;20741;-72
2021/06/03 08:23:40;;;;;;;3.47;3.05;;;;;;;;;;5025223;28;20655;-73
2021/06/03 08:26:07;;;;;;;3.53;2.92;;;;;;;;;;5019436;28;20216;-72
2021/06/03 08:28:33;;;;;;;2.97;2.60;;;;;;;;;;5029729;28;20263;-72
2021/06/03 08:31:00;;;;;;;5.03;2.65;;;;;;;;;;5024811;28;20263;-72
2021/06/03 08:33:26;;;;;;;2.92;2.63;;;;;;;;;;5024377;28;20238;-73
2021/06/03 08:35:53;;;;;;;4.65;3.03;;;;;;;;;;5025872;28;20551;-72
2021/06/03 08:38:19;;;;;;;4.25;2.58;;;;;;;;;;5021175;28;20220;-74
2021/06/03 08:40:50;;;;;;;4.22;2.33;;;;;;;;;;5028530;28;20211;-70
2021/06/03 08:43:17;;;;;;;4.22;1.77;;;;;;;;;;5024420;28;20258;-71
2021/06/03 08:45:43;;;;;;;4.53;2.17;;;;;;;;;;5025405;28;20208;-71
2021/06/03 08:48:10;;;;;;;3.50;1.95;;;;;;;;;;5022063;28;20192;-71
2021/06/03 08:50:39;;;;;;;2.35;1.80;;;;;;;;;;5004091;28;20201;-73
2021/06/03 08:53:05;;;;;;;2.60;1.60;;;;;;;;;;5028273;28;20215;-72
2021/06/03 08:58:18;;;;;;;5.38;1.80;;;;;;;;;;5023424;28;20199;-72
2021/06/03 09:00:44;;;;;;;2.97;1.63;;;;;;;;;;5024590;28;20651;-72
2021/06/03 09:03:11;;;;;;;5.63;1.50;;;;;;;;;;5027130;28;20680;-73
2021/06/03 09:05:39;;;;;;;3.10;1.38;;;;;;;;;;5019175;28;20203;-72
2021/06/03 09:08:17;;;;;;;2.20;1.08;;;;;;;;;;5025160;28;20235;-72
2021/06/03 09:10:44;;;;;;;1.55;1.20;;;;;;;;;;5029060;28;20540;-73
2021/06/03 09:13:11;;;;;;;1.52;0.95;;;;;;;;;;5023632;28;20184;-72
2021/06/03 09:15:38;;;;;;;3.30;1.30;;;;;;;;;;5026945;28;20214;-72
2021/06/03 09:18:08;;;;;;;3.95;1.25;;;;;;;;;;5034122;28;20632;-72
2021/06/03 09:20:34;;;;;;;2.28;1.00;;;;;;;;;;5022672;28;20233;-73
2021/06/03 09:23:00;;;;;;;1.17;0.80;;;;;;;;;;5024029;28;20203;-73
2021/06/03 09:25:29;;;;;;;2.17;1.05;;;;;;;;;;5026551;28;20207;-72
2021/06/03 09:27:55;;;;;;;3.42;0.80;;;;;;;;;;5022793;28;20245;-73
2021/06/03 09:30:21;;;;;;;1.90;1.10;;;;;;;;;;5017240;28;20298;-72
2021/06/03 09:32:54;;;;;;;3.53;1.42;;;;;;;;;;5025448;28;20196;-72
2021/06/03 09:35:20;;;;;;;4.20;1.10;;;;;;;;;;5025901;28;20813;-73
2021/06/03 09:37:46;;;;;;;2.00;1.13;;;;;;;;;;5023153;28;20187;-73
2021/06/03 09:40:22;;;;;;;2.55;1.15;;;;;;;;;;5022395;28;20175;-73
2021/06/03 09:43:04;;;;;;;2.22;1.42;;;;;;;;;;5024627;28;20179;-73
2021/06/03 09:45:49;;;;;;;1.80;1.20;;;;;;;;;;5020442;28;20821;-73
2021/06/03 09:48:34;;;;;;;1.77;1.00;;;;;;;;;;5023519;28;20196;-73
2021/06/03 09:51:18;;;;;;;2.03;0.93;;;;;;;;;;5023584;28;20188;-71
2021/06/03 09:54:03;;;;;;;2.88;1.00;;;;;;;;;;5026044;28;20183;-71
2021/06/03 09:56:33;;;;;;;1.98;1.13;;;;;;;;;;5025910;28;20219;-71
2021/06/03 09:59:00;;;;;;;2.28;1.20;;;;;;;;;;5027952;28;20199;-71
2021/06/03 10:01:58;;;;;;;1.45;0.90;;;;;;;;;;5022060;28;20188;-72
2021/06/03 10:04:24;;;;;;;1.75;0.93;;;;;;;;;;4962752;28;20221;-71
2021/06/03 10:06:54;;;;;;;4.20;1.00;;;;;;;;;;4968286;28;20283;-71
2021/06/03 10:09:39;;;;;;;2.38;1.27;;;;;;;;;;4963117;28;20225;-73
2021/06/03 10:12:06;;;;;;;2.38;1.13;;;;;;;;;;4941726;28;20189;-72
2021/06/03 10:14:33;;;;;;;3.45;1.17;;;;;;;;;;4964022;28;20769;-72
2021/06/03 10:17:12;;;;;;;2.13;0.80;;;;;;;;;;4966945;28;20209;-72
2021/06/03 10:19:38;;;;;;;3.03;1.17;;;;;;;;;;4962793;28;20190;-70
2021/06/03 10:22:30;;;;;;;2.60;1.02;;;;;;;;;;4946722;28;20277;-70
2021/06/03 10:24:57;;;;;;;2.17;1.02;;;;;;;;;;4948248;28;20202;-70
2021/06/03 10:27:28;;;;;;;2.53;1.45;;;;;;;;;;4961727;28;20241;-70
2021/06/03 10:29:55;;;;;;;2.47;1.40;;;;;;;;;;4960105;28;20433;-71
2021/06/03 10:32:22;;;;;;;3.08;1.20;;;;;;;;;;4961421;28;20196;-73
2021/06/03 10:34:50;;;;;;;5.30;1.52;;;;;;;;;;4967323;28;20217;-72
2021/06/03 10:37:16;;;;;;;3.60;1.60;;;;;;;;;;4963718;28;20205;-72
2021/06/03 10:39:43;;;;;;;2.60;1.05;;;;;;;;;;4989608;28;20279;-72
2021/06/03 10:42:11;;;;;;;3.58;1.40;;;;;;;;;;5026104;28;20220;-72
2021/06/03 10:44:37;;;;;;;2.53;1.60;;;;;;;;;;5024654;28;20191;-72
2021/06/03 10:47:03;;;;;;;3.22;1.23;;;;;;;;;;5009288;28;20578;-72
2021/06/03 10:49:31;;;;;;;2.90;1.27;;;;;;;;;;5026723;28;20678;-71
2021/06/03 10:51:58;;;;;;;2.35;0.88;;;;;;;;;;5027154;28;20179;-72
2021/06/03 10:54:43;;;;;;;1.83;0.90;;;;;;;;;;5020243;28;20192;-72
2021/06/03 10:57:09;;;;;;;2.15;1.10;;;;;;;;;;5022023;28;20629;-72
2021/06/03 10:59:37;;;;;;;2.13;1.30;;;;;;;;;;5024835;28;20588;-72
2021/06/03 11:02:03;;;;;;;2.75;1.00;;;;;;;;;;5024518;28;20207;-72
2021/06/03 11:04:30;;;;;;;2.40;1.02;;;;;;;;;;5024586;28;20191;-72
2021/06/03 11:06:56;;;;;;;4.30;1.00;;;;;;;;;;5026268;28;20242;-72
2021/06/03 11:09:30;;;;;;;2.42;1.00;;;;;;;;;;5026479;28;20203;-72
2021/06/03 11:12:11;;;;;;;2.70;1.10;;;;;;;;;;5023413;28;20242;-72
2021/06/03 11:14:56;;;;;;;4.20;1.00;;;;;;;;;;5025809;28;20191;-72
2021/06/03 11:17:40;;;;;;;1.98;1.10;;;;;;;;;;5022424;28;20196;-72
2021/06/03 11:20:09;;;;;;;2.42;0.90;;;;;;;;;;5024685;28;20560;-72
2021/06/03 11:22:35;;;;;;;1.70;1.08;;;;;;;;;;5010217;28;20180;-72
2021/06/03 11:25:04;;;;;;;2.03;1.00;;;;;;;;;;5025731;28;20244;-72
2021/06/03 11:27:40;;;;;;;2.28;1.00;;;;;;;;;;5026462;28;20686;-72
2021/06/03 11:30:10;;;;;;;1.77;1.05;;;;;;;;;;5024966;28;20411;-76
2021/06/03 11:32:39;;;;;;;2.15;1.05;;;;;;;;;;5012520;28;20187;-76
2021/06/03 11:35:07;;;;;;;2.40;1.13;;;;;;;;;;5029105;28;20203;-76
2021/06/03 11:37:53;;;;;;;2.78;1.10;;;;;;;;;;5027578;28;20245;-76
2021/06/03 11:40:20;;;;;;;;;;;;;;;;;;5009313;28;20037;-76
2021/06/03 11:42:46;;;;;;;;;;;;;;;;;;5013789;28;19909;-78
2021/06/03 11:45:12;;;;;;;;;;;;;;;;;;5027371;28;19909;-77
2021/06/03 11:47:38;;;;;;;;;;;;;;;;;;5029063;28;20451;-75
2021/06/03 11:50:04;;;;;;;;;;;;;;;;;;5027830;28;19963;-75
2021/06/03 11:52:30;;;;;;;;;;;;;;;;;;5029305;28;20292;-75
2021/06/03 11:54:57;;;;;;;;;;;;;;;;;;5029315;28;19909;-76
2021/06/03 11:57:22;;;;;;;;;;;;;;;;;;5025440;28;19916;-75
2021/06/03 11:59:48;;;;;;;;;;;;;;;;;;5031565;28;19917;-75
2021/06/03 12:02:14;;;;;;;;;;;;;;;;;;5027644;28;19909;-75
2021/06/03 12:04:40;;;;;;;;;;;;;;;;;;5028783;28;19979;-75
2021/06/03 12:07:06;;;;;;;;;;;;;;;;;;5029227;28;19913;-75
2021/06/03 12:09:35;;;;;;;;;;;;;;;;;;5030549;28;19920;-78
2021/06/03 12:12:01;;;;;;;;;;;;;;;;;;5025951;28;19917;-75
2021/06/03 12:14:27;;;;;;;;;;;;;;;;;;5028012;28;20257;-76
2021/06/03 12:16:52;;;;;;;;;;;;;;;;;;5029450;28;19917;-76
2021/06/03 12:19:20;;;;;;;;;;;;;;;;;;5028784;28;19920;-75
2021/06/03 12:21:46;;;;;;;;;;;;;;;;;;5009036;28;20389;-75
2021/06/03 12:24:12;;;;;;;;;;;;;;;;;;5029198;28;19928;-75
2021/06/03 12:26:38;;;;;;;;;;;;;;;;;;5025476;28;20340;-75
2021/06/03 12:29:04;;;;;;;;;;;;;;;;;;5025299;28;20328;-77
2021/06/03 12:31:30;;;;;;;;;;;;;;;;;;5027388;28;20039;-77
2021/06/03 12:33:56;;;;;;;;;;;;;;;;;;5028955;28;20095;-76
2021/06/03 12:36:25;;;;;;;;;;;;;;;;;;5025757;28;20438;-76
2021/06/03 12:38:51;;;;;;;;;;;;;;;;;;5011889;28;19920;-75
2021/06/03 12:41:17;;;;;;;;;;;;;;;;;;5026495;28;19915;-76
2021/06/03 12:43:43;;;;;;;;;;;;;;;;;;5027009;28;20000;-75
2021/06/03 12:46:09;;;;;;;;;;;;;;;;;;5025491;28;19999;-75
2021/06/03 12:48:35;;;;;;;;;;;;;;;;;;5026661;28;20004;-75
2021/06/03 12:51:00;;;;;;;;;;;;;;;;;;5026959;28;19913;-76
2021/06/03 12:53:26;;;;;;;;;;;;;;;;;;5024458;28;19910;-77
2021/06/03 12:55:52;;;;;;;;;;;;;;;;;;5027480;28;19956;-76
2021/06/03 12:58:18;;;;;;;;;;;;;;;;;;5030694;28;19948;-78
2021/06/03 13:00:44;;;;;;;;;;;;;;;;;;5025804;28;20407;-76
2021/06/03 13:03:10;;;;;;;;;;;;;;;;;;5027949;28;19984;-76
2021/06/03 13:05:36;;;;;;;;;;;;;;;;;;5030219;28;20265;-78
2021/06/03 13:08:02;;;;;;;;;;;;;;;;;;5023253;28;19909;-78
2021/06/03 13:10:28;;;;;;;;;;;;;;;;;;5025795;28;19928;-79
2021/06/03 13:12:55;;;;;;;;;;;;;;;;;;5028340;28;19909;-77
2021/06/03 13:15:21;;;;;;;;;;;;;;;;;;5025522;28;20016;-76
2021/06/03 13:17:53;;;;;;;;;;;;;;;;;;5023740;28;20329;-77
2021/06/03 13:20:19;;;;;;;;;;;;;;;;;;5025679;28;19928;-77
2021/06/03 13:22:45;;;;;;;;;;;;;;;;;;5029760;28;19909;-77
2021/06/03 13:25:12;;;;;;;;;;;;;;;;;;5026348;28;19909;-77
2021/06/03 13:27:38;;;;;;;;;;;;;;;;;;5029581;28;20372;-76
2021/06/03 13:30:04;;;;;;;;;;;;;;;;;;5028732;28;19915;-77
2021/06/03 13:32:30;;;;;;;;;;;;;;;;;;5026131;28;19909;-77
2021/06/03 13:34:56;;;;;;;;;;;;;;;;;;5026627;28;20299;-77
2021/06/03 13:37:23;;;;;;;;;;;;;;;;;;5028182;28;20002;-77
2021/06/03 13:39:50;;;;;;;;;;;;;;;;;;5025825;28;19909;-78
2021/06/03 13:42:16;;;;;;;;;;;;;;;;;;5027841;28;19919;-77
2021/06/03 13:44:42;;;;;;;;;;;;;;;;;;5025635;28;19909;-76
2021/06/03 13:47:08;;;;;;;;;;;;;;;;;;5028277;28;19913;-76
2021/06/03 13:49:34;;;;;;;;;;;;;;;;;;5022553;28;20000;-78
2021/06/03 13:51:59;;;;;;;;;;;;;;;;;;5023834;28;19931;-77
2021/06/03 13:54:25;;;;;;;;;;;;;;;;;;5019214;28;19921;-78
2021/06/03 13:56:51;;;;;;;;;;;;;;;;;;5020160;28;19913;-77
2021/06/03 13:59:17;;;;;;;;;;;;;;;;;;5026620;28;20462;-77
2021/06/03 14:01:43;;;;;;;;;;;;;;;;;;5019978;28;19915;-78
2021/06/03 14:04:09;;;;;;;;;;;;;;;;;;5024511;28;19915;-76
2021/06/03 14:06:35;;;;;;;;;;;;;;;;;;5027087;28;19917;-76
2021/06/03 14:09:01;;;;;;;;;;;;;;;;;;5027244;28;19908;-78
2021/06/03 14:11:38;;;;;;;;;;;;;;;;;;5023214;28;19917;-76
2021/06/03 14:14:06;;;;;;;;;;;;;;;;;;5026988;28;20012;-78
2021/06/03 14:16:32;;;;;;;;;;;;;;;;;;5026650;28;20387;-77
2021/06/03 14:18:58;;;;;;;;;;;;;;;;;;5032471;28;19909;-78
2021/06/03 14:21:23;;;;;;;;;;;;;;;;;;5021380;28;19992;-78
2021/06/03 14:23:52;;;;;;;;;;;;;;;;;;5020698;28;19913;-78
2021/06/03 14:26:18;;;;;;;;;;;;;;;;;;5025161;28;20296;-78
2021/06/03 14:28:44;;;;;;;;;;;;;;;;;;5027859;28;19946;-79
2021/06/03 14:31:10;;;;;;;;;;;;;;;;;;5006607;28;19920;-79
2021/06/03 14:33:35;;;;;;;;;;;;;;;;;;5023370;28;19958;-77
2021/06/03 14:36:01;;;;;;;;;;;;;;;;;;5024320;28;19920;-76
2021/06/03 14:38:27;;;;;;;;;;;;;;;;;;5021497;28;19957;-77
2021/06/03 14:40:53;;;;;;;;;;;;;;;;;;5021000;28;20407;-77
2021/06/03 14:43:19;;;;;;;;;;;;;;;;;;5024514;28;19917;-78
2021/06/03 14:45:45;;;;;;;;;;;;;;;;;;5022856;28;20063;-77
2021/06/03 14:48:11;;;;;;;;;;;;;;;;;;5022548;28;19917;-78
2021/06/03 14:50:37;;;;;;;;;;;;;;;;;;5024950;28;19909;-77
2021/06/03 14:53:03;;;;;;;;;;;;;;;;;;5029675;28;19909;-77
2021/06/03 14:55:29;;;;;;;;;;;;;;;;;;5007849;28;19921;-76
2021/06/03 14:57:55;;;;;;;;;;;;;;;;;;5022351;28;19917;-76
2021/06/03 15:00:20;;;;;;;;;;;;;;;;;;5018648;28;20356;-76
2021/06/03 15:02:46;;;;;;;;;;;;;;;;;;5005173;28;19913;-76
2021/06/03 15:05:12;;;;;;;;;;;;;;;;;;5017212;28;19991;-76